createdAt,value
2022-09-23T00:01:18.537Z,6.82
2022-09-23T00:03:46.333Z,6.80
2022-09-23T00:06:20.321Z,6.80
2022-09-23T00:08:50.014Z,6.79
2022-09-23T00:11:20.141Z,6.79
2022-09-23T00:13:49.698Z,6.79
2022-09-23T00:16:23.874Z,6.78
2022-09-23T00:18:51.659Z,6.78
2022-09-23T00:21:20.217Z,6.81
2022-09-23T00:23:48.039Z,6.84
2022-09-23T00:26:18.377Z,6.89
2022-09-23T00:28:46.389Z,6.96
2022-09-23T00:31:16.663Z,7.03
2022-09-23T00:33:44.237Z,7.07
2022-09-23T00:36:15.046Z,7.11
2022-09-23T00:38:44.114Z,7.16
2022-09-23T00:41:14.323Z,7.20
2022-09-23T00:43:53.106Z,7.25
2022-09-23T00:46:24.328Z,7.27
2022-09-23T00:48:58.355Z,7.31
2022-09-23T00:51:29.380Z,7.36
2022-09-23T00:53:57.206Z,7.38
2022-09-23T00:56:24.779Z,7.38
2022-09-23T00:58:53.063Z,7.43
2022-09-23T01:01:21.010Z,7.47
2022-09-23T01:03:49.093Z,7.50
2022-09-23T01:06:16.687Z,7.53
2022-09-23T01:08:45.927Z,7.56
2022-09-23T01:11:25.721Z,7.57
2022-09-23T01:14:11.649Z,7.56
2022-09-23T01:16:45.521Z,7.55
2022-09-23T01:19:50.440Z,7.58
2022-09-23T01:22:45.817Z,7.59
2022-09-23T01:25:25.364Z,7.58
2022-09-23T01:27:56.408Z,7.59
2022-09-23T01:30:38.777Z,7.59
2022-09-23T01:33:26.336Z,7.60
2022-09-23T01:36:06.094Z,7.59
2022-09-23T01:38:43.013Z,7.60
2022-09-23T01:41:14.518Z,7.61
2022-09-23T01:43:51.688Z,7.61
2022-09-23T01:46:22.076Z,7.60
2022-09-23T01:49:11.101Z,7.60
2022-09-23T01:51:41.968Z,7.59
2022-09-23T01:54:15.579Z,7.54
2022-09-23T01:56:50.891Z,7.52
2022-09-23T01:59:36.784Z,7.51
2022-09-23T02:02:10.888Z,7.53
2022-09-23T02:04:57.271Z,7.55
2022-09-23T02:07:28.192Z,7.56
2022-09-23T02:09:59.334Z,7.58
2022-09-23T02:12:28.766Z,7.58
2022-09-23T02:14:59.271Z,7.61
2022-09-23T02:17:46.738Z,7.63
2022-09-23T02:20:18.334Z,7.62
2022-09-23T02:23:01.225Z,7.60
2022-09-23T02:25:35.303Z,7.60
2022-09-23T02:28:06.372Z,7.60
2022-09-23T02:30:38.407Z,7.59
2022-09-23T02:33:08.406Z,7.60
2022-09-23T02:35:43.681Z,7.61
2022-09-23T02:38:26.571Z,7.61
2022-09-23T02:41:00.772Z,7.63
2022-09-23T02:43:34.995Z,7.64
2022-09-23T02:46:03.620Z,7.64
2022-09-23T02:48:37.894Z,7.64
2022-09-23T02:51:05.655Z,7.60
2022-09-23T02:53:33.394Z,7.57
2022-09-23T02:56:01.492Z,7.57
2022-09-23T02:58:29.457Z,7.60
2022-09-23T03:01:04.533Z,7.62
2022-09-23T03:03:47.234Z,7.63
2022-09-23T03:06:27.572Z,7.64
2022-09-23T03:09:10.360Z,7.65
2022-09-23T03:11:39.922Z,7.66
2022-09-23T03:14:23.173Z,7.69
2022-09-23T03:17:06.474Z,7.68
2022-09-23T03:19:43.602Z,7.68
2022-09-23T03:22:39.325Z,7.69
2022-09-23T03:25:11.288Z,7.70
2022-09-23T03:27:42.340Z,7.72
2022-09-23T03:30:12.546Z,7.73
2022-09-23T03:32:45.484Z,7.74
2022-09-23T03:35:13.573Z,7.73
2022-09-23T03:37:47.625Z,7.72
2022-09-23T03:40:19.005Z,7.74
2022-09-23T03:42:48.463Z,7.72
2022-09-23T03:45:20.784Z,7.74
2022-09-23T03:47:48.662Z,7.73
2022-09-23T03:50:18.502Z,7.76
2022-09-23T03:52:47.049Z,7.76
2022-09-23T03:55:15.886Z,7.76
2022-09-23T03:57:44.778Z,7.75
2022-09-23T04:00:15.785Z,7.76
2022-09-23T04:02:43.667Z,7.76
2022-09-23T04:05:12.742Z,7.75
2022-09-23T04:07:40.713Z,7.69
2022-09-23T04:10:09.434Z,7.64
2022-09-23T04:12:37.179Z,7.61
2022-09-23T04:15:05.726Z,7.60
2022-09-23T04:17:34.889Z,7.62
2022-09-23T04:20:05.326Z,7.61
2022-09-23T04:22:33.693Z,7.59
2022-09-23T04:25:01.475Z,7.56
2022-09-23T04:27:37.405Z,7.55
2022-09-23T04:30:05.830Z,7.56
2022-09-23T04:32:34.959Z,7.58
2022-09-23T04:35:02.525Z,7.60
2022-09-23T04:37:29.869Z,7.63
2022-09-23T04:39:57.514Z,7.61
2022-09-23T04:42:30.830Z,7.61
2022-09-23T04:44:58.174Z,7.61
2022-09-23T04:47:25.564Z,7.63
2022-09-23T04:49:54.651Z,7.67
2022-09-23T04:52:21.870Z,7.69
2022-09-23T04:54:49.233Z,7.72
2022-09-23T04:57:16.895Z,7.74
2022-09-23T04:59:44.793Z,7.80
2022-09-23T05:02:12.111Z,7.81
2022-09-23T05:04:40.530Z,7.84
2022-09-23T05:07:08.215Z,7.87
2022-09-23T05:09:35.303Z,7.89
2022-09-23T05:12:05.206Z,7.92
2022-09-23T05:14:32.973Z,7.96
2022-09-23T05:17:00.364Z,8.03
2022-09-23T05:19:27.742Z,8.12
2022-09-23T05:21:56.006Z,8.21
2022-09-23T05:24:24.663Z,8.28
2022-09-23T05:26:53.752Z,8.34
2022-09-23T05:29:21.111Z,8.38
2022-09-23T05:31:48.444Z,8.40
2022-09-23T05:34:15.994Z,8.40
2022-09-23T05:36:43.625Z,8.41
2022-09-23T05:39:11.282Z,8.38
2022-09-23T05:41:40.488Z,8.39
2022-09-23T05:44:08.186Z,8.40
2022-09-23T05:46:36.707Z,8.41
2022-09-23T05:49:05.825Z,8.43
2022-09-23T05:51:36.471Z,8.49
2022-09-23T05:54:04.672Z,8.51
2022-09-23T05:56:33.652Z,8.55
2022-09-23T05:59:02.605Z,8.58
2022-09-23T06:01:33.130Z,8.65
2022-09-23T06:04:02.428Z,8.67
2022-09-23T06:06:33.153Z,8.71
2022-09-23T06:09:01.113Z,8.76
2022-09-23T06:11:32.862Z,8.80
2022-09-23T06:14:01.618Z,8.84
2022-09-23T06:16:32.652Z,8.90
2022-09-23T06:19:05.377Z,8.92
2022-09-23T06:21:32.988Z,8.98
2022-09-23T06:24:00.865Z,9.00
2022-09-23T06:26:30.213Z,9.05
2022-09-23T06:28:57.901Z,9.11
2022-09-23T06:31:25.663Z,9.11
2022-09-23T06:34:02.549Z,9.12
2022-09-23T06:36:39.645Z,9.10
2022-09-23T06:38:52.509Z,9.09
2022-09-23T06:41:20.227Z,9.11
2022-09-23T06:43:47.590Z,9.17
2022-09-23T06:46:15.682Z,9.24
2022-09-23T06:48:46.178Z,9.32
2022-09-23T06:51:18.612Z,9.39
2022-09-23T06:53:47.738Z,9.47
2022-09-23T06:56:16.732Z,9.52
2022-09-23T06:58:56.032Z,9.58
2022-09-23T07:01:23.623Z,9.60
2022-09-23T07:03:51.480Z,9.59
2022-09-23T07:06:19.806Z,9.58
2022-09-23T07:08:47.792Z,9.61
2022-09-23T07:11:15.653Z,9.63
2022-09-23T07:13:45.136Z,9.66
2022-09-23T07:16:12.976Z,9.66
2022-09-23T07:18:40.518Z,9.68
2022-09-23T07:21:12.698Z,9.68
2022-09-23T07:23:43.783Z,9.67
2022-09-23T07:26:12.126Z,9.70
2022-09-23T07:28:40.431Z,9.73
2022-09-23T07:31:10.744Z,9.76
2022-09-23T07:33:40.389Z,9.74
2022-09-23T07:36:10.752Z,9.73
2022-09-23T07:38:42.849Z,9.74
2022-09-23T07:41:10.332Z,9.82
2022-09-23T07:43:40.464Z,9.88
2022-09-23T07:46:11.305Z,9.91
2022-09-23T07:48:39.004Z,9.94
2022-09-23T07:51:15.569Z,9.99
2022-09-23T07:53:49.066Z,10.03
2022-09-23T07:56:18.853Z,10.10
2022-09-23T07:58:48.911Z,10.15
2022-09-23T08:01:16.432Z,10.18
2022-09-23T08:03:45.266Z,10.23
2022-09-23T08:06:13.445Z,10.24
2022-09-23T08:08:42.943Z,10.31
2022-09-23T08:11:15.960Z,10.32
2022-09-23T08:13:44.024Z,10.32
2022-09-23T08:16:11.998Z,10.35
2022-09-23T08:18:46.592Z,10.38
2022-09-23T08:21:27.838Z,10.43
2022-09-23T08:24:00.209Z,10.46
2022-09-23T08:26:29.174Z,10.45
2022-09-23T08:28:58.377Z,10.56
2022-09-23T08:31:35.361Z,10.63
2022-09-23T08:34:05.888Z,10.72
2022-09-23T08:36:34.127Z,10.81
2022-09-23T08:39:01.961Z,10.87
2022-09-23T08:41:32.943Z,10.91
2022-09-23T08:44:32.116Z,10.91
2022-09-23T08:47:39.456Z,10.87
2022-09-23T08:50:42.113Z,10.82
2022-09-23T08:56:22.993Z,10.92
2022-09-23T08:59:28.421Z,10.89
2022-09-23T09:01:58.905Z,10.90
2022-09-23T09:04:40.313Z,10.96
2022-09-23T09:09:56.718Z,11.06
2022-09-23T09:12:31.206Z,11.09
2022-09-23T09:15:07.477Z,11.14
2022-09-23T09:17:48.320Z,11.24
2022-09-23T09:20:29.395Z,11.34
2022-09-23T09:23:08.327Z,11.40
2022-09-23T09:25:49.331Z,11.53
2022-09-23T09:28:36.943Z,11.61
2022-09-23T09:31:22.124Z,11.68
2022-09-23T09:34:02.612Z,11.75
2022-09-23T09:36:47.349Z,11.84
2022-09-23T09:39:15.565Z,11.99
2022-09-23T09:41:48.615Z,12.11
2022-09-23T09:44:26.564Z,12.20
2022-09-23T09:47:19.757Z,12.33
2022-09-23T09:49:52.286Z,12.37
2022-09-23T09:52:28.966Z,12.32
2022-09-23T09:55:14.640Z,12.33
2022-09-23T09:57:54.843Z,12.40
2022-09-23T10:00:26.034Z,12.52
2022-09-23T10:02:55.366Z,12.71
2022-09-23T10:05:26.537Z,12.92
2022-09-23T10:07:54.562Z,13.11
2022-09-23T10:10:33.276Z,13.35
2022-09-23T10:12:53.472Z,13.70
2022-09-23T10:15:27.738Z,14.02
2022-09-23T10:17:55.439Z,14.17
2022-09-23T10:20:37.422Z,14.25
2022-09-23T10:23:14.773Z,14.24
2022-09-23T10:25:43.436Z,14.35
2022-09-23T10:28:30.575Z,14.42
2022-09-23T10:31:04.742Z,14.49
2022-09-23T10:33:32.212Z,14.66
2022-09-23T10:35:59.520Z,14.93
2022-09-23T10:38:26.983Z,15.15
2022-09-23T10:41:14.798Z,15.26
2022-09-23T10:44:04.560Z,15.31
2022-09-23T10:47:03.099Z,15.35
2022-09-23T10:49:51.916Z,15.40
2022-09-23T10:52:31.978Z,15.42
2022-09-23T10:55:21.111Z,15.25
2022-09-23T10:57:52.022Z,15.05
2022-09-23T11:00:46.391Z,14.90
2022-09-23T11:03:45.308Z,14.84
2022-09-23T11:06:22.444Z,14.92
2022-09-23T11:09:04.430Z,15.09
2022-09-23T11:11:54.379Z,15.30
2022-09-23T11:14:48.250Z,15.45
2022-09-23T11:17:28.248Z,15.58
2022-09-23T11:20:25.254Z,15.47
2022-09-23T11:23:07.671Z,15.41
2022-09-23T11:26:00.148Z,15.37
2022-09-23T11:28:50.166Z,15.41
2022-09-23T11:31:36.333Z,15.40
2022-09-23T11:34:24.327Z,15.37
2022-09-23T11:37:01.739Z,15.44
2022-09-23T11:39:41.909Z,15.58
2022-09-23T11:42:12.882Z,15.55
2022-09-23T11:44:42.682Z,15.43
2022-09-23T11:47:25.642Z,15.39
2022-09-23T11:50:12.245Z,15.35
2022-09-23T11:52:45.089Z,15.44
2022-09-23T11:55:23.322Z,15.56
2022-09-23T11:57:57.009Z,15.68
2022-09-23T12:00:26.314Z,15.84
2022-09-23T12:03:06.686Z,15.96
2022-09-23T12:05:40.177Z,15.94
2022-09-23T12:08:24.532Z,16.01
2022-09-23T12:11:12.336Z,15.84
2022-09-23T12:13:52.144Z,15.71
2022-09-23T12:16:35.497Z,15.58
2022-09-23T12:19:21.687Z,15.49
2022-09-23T12:22:17.078Z,15.39
2022-09-23T12:24:51.482Z,15.36
2022-09-23T12:27:31.315Z,15.36
2022-09-23T12:30:01.913Z,15.27
2022-09-23T12:32:29.849Z,15.29
2022-09-23T12:34:58.685Z,15.25
2022-09-23T12:37:35.599Z,15.28
2022-09-23T12:40:18.564Z,15.33
2022-09-23T12:42:47.244Z,15.35
2022-09-23T12:45:20.798Z,15.25
2022-09-23T12:47:47.958Z,15.25
2022-09-23T12:50:50.975Z,15.21
2022-09-23T12:53:36.931Z,15.17
2022-09-23T12:56:19.395Z,15.08
2022-09-23T12:58:50.443Z,14.93
2022-09-23T13:01:23.420Z,14.84
2022-09-23T13:04:12.125Z,14.72
2022-09-23T13:06:42.203Z,14.56
2022-09-23T13:09:19.213Z,14.42
2022-09-23T13:11:47.511Z,14.32
2022-09-23T13:14:18.203Z,14.25
2022-09-23T13:16:46.113Z,14.17
2022-09-23T13:19:28.929Z,14.08
2022-09-23T13:22:08.339Z,14.05
2022-09-23T13:24:48.134Z,14.00
2022-09-23T13:27:35.112Z,13.98
2022-09-23T13:30:25.742Z,13.89
2022-09-23T13:32:54.618Z,13.85
2022-09-23T13:35:25.941Z,13.87
2022-09-23T13:37:53.723Z,13.78
2022-09-23T13:40:29.448Z,13.94
2022-09-23T13:43:06.063Z,13.90
2022-09-23T13:45:39.437Z,13.84
2022-09-23T13:48:10.277Z,13.78
2022-09-23T13:50:40.315Z,13.83
2022-09-23T13:53:11.579Z,13.94
2022-09-23T13:55:40.842Z,14.00
2022-09-23T13:58:23.395Z,14.07
2022-09-23T14:00:51.261Z,14.07
2022-09-23T14:03:36.878Z,14.11
2022-09-23T14:06:13.803Z,14.05
2022-09-23T14:08:46.824Z,13.99
2022-09-23T14:11:16.049Z,13.95
2022-09-23T14:13:44.329Z,13.92
2022-09-23T14:16:15.384Z,13.88
2022-09-23T14:18:47.667Z,13.82
2022-09-23T14:21:35.297Z,13.74
2022-09-23T14:24:18.314Z,13.69
2022-09-23T14:26:55.256Z,13.66
2022-09-23T14:29:29.315Z,13.63
2022-09-23T14:32:03.813Z,13.61
2022-09-23T14:34:47.728Z,13.58
2022-09-23T14:37:46.438Z,13.52
2022-09-23T14:40:16.982Z,13.56
2022-09-23T14:42:49.057Z,13.50
2022-09-23T14:45:22.745Z,13.39
2022-09-23T14:48:03.238Z,13.34
2022-09-23T14:50:42.630Z,13.29
2022-09-23T14:53:37.140Z,13.28
2022-09-23T14:56:11.434Z,13.30
2022-09-23T14:58:52.363Z,13.31
2022-09-23T15:01:34.618Z,13.35
2022-09-23T15:04:13.824Z,13.35
2022-09-23T15:06:55.717Z,13.30
2022-09-23T15:09:32.495Z,13.26
2022-09-23T15:12:03.000Z,13.22
2022-09-23T15:14:39.847Z,13.19
2022-09-23T15:17:08.816Z,13.11
2022-09-23T15:19:38.251Z,13.03
2022-09-23T15:22:07.632Z,12.96
2022-09-23T15:24:43.216Z,12.90
2022-09-23T15:27:32.648Z,12.85
2022-09-23T15:30:16.777Z,12.80
2022-09-23T15:32:45.296Z,12.73
2022-09-23T15:35:15.113Z,12.68
2022-09-23T15:37:44.188Z,12.57
2022-09-23T15:40:24.560Z,12.49
2022-09-23T15:42:57.141Z,12.45
2022-09-23T15:45:32.861Z,12.37
2022-09-23T15:48:10.310Z,12.29
2022-09-23T15:50:38.866Z,12.20
2022-09-23T15:53:06.528Z,12.10
2022-09-23T15:55:33.602Z,12.01
2022-09-23T15:58:01.116Z,11.92
2022-09-23T16:00:28.910Z,11.85
2022-09-23T16:03:00.546Z,11.80
2022-09-23T16:05:33.267Z,11.70
2022-09-23T16:08:05.015Z,11.63
2022-09-23T16:10:31.171Z,11.56
2022-09-23T16:13:02.391Z,11.51
2022-09-23T16:15:31.312Z,11.44
2022-09-23T16:17:59.311Z,11.39
2022-09-23T16:20:29.195Z,11.35
2022-09-23T16:23:02.747Z,11.33
2022-09-23T16:25:33.478Z,11.28
2022-09-23T16:28:00.903Z,11.25
2022-09-23T16:30:30.967Z,11.22
2022-09-23T16:32:58.230Z,11.20
2022-09-23T16:35:26.955Z,11.18
2022-09-23T16:37:55.409Z,11.16
2022-09-23T16:40:23.808Z,11.14
2022-09-23T16:42:53.805Z,11.12
2022-09-23T16:45:22.668Z,11.11
2022-09-23T16:47:52.357Z,11.11
2022-09-23T16:50:22.211Z,11.10
2022-09-23T16:52:53.826Z,11.09
2022-09-23T16:55:21.467Z,11.09
2022-09-23T16:57:48.664Z,11.08
2022-09-23T17:00:34.814Z,11.06
2022-09-23T17:03:22.148Z,11.05
2022-09-23T17:06:00.681Z,11.04
2022-09-23T17:08:29.462Z,11.05
2022-09-23T17:10:58.455Z,11.03
2022-09-23T17:13:26.621Z,11.01
2022-09-23T17:15:54.757Z,10.99
2022-09-23T17:18:22.122Z,10.96
2022-09-23T17:21:00.536Z,10.95
2022-09-23T17:23:28.686Z,10.95
2022-09-23T17:25:56.025Z,10.95
2022-09-23T17:28:24.007Z,10.94
2022-09-23T17:30:58.827Z,10.92
2022-09-23T17:33:27.507Z,10.92
2022-09-23T17:35:56.338Z,10.92
2022-09-23T17:38:28.624Z,10.89
2022-09-23T17:40:55.198Z,10.88
2022-09-23T17:43:25.989Z,10.87
2022-09-23T17:45:58.457Z,10.84
2022-09-23T17:48:26.125Z,10.83
2022-09-23T17:51:00.694Z,10.82
2022-09-23T17:53:32.757Z,10.80
2022-09-23T17:56:03.634Z,10.80
2022-09-23T17:58:34.246Z,10.79
2022-09-23T18:01:19.080Z,10.78
2022-09-23T18:03:47.757Z,10.78
2022-09-23T18:06:18.165Z,10.74
2022-09-23T18:08:48.349Z,10.72
2022-09-23T18:11:21.509Z,10.69
2022-09-23T18:13:53.512Z,10.63
2022-09-23T18:16:23.105Z,10.58
2022-09-23T18:18:51.880Z,10.54
2022-09-23T18:21:20.535Z,10.48
2022-09-23T18:23:47.921Z,10.43
2022-09-23T18:26:18.680Z,10.39
2022-09-23T18:28:47.419Z,10.34
2022-09-23T18:31:15.453Z,10.30
2022-09-23T18:33:42.888Z,10.24
2022-09-23T18:36:10.528Z,10.20
2022-09-23T18:38:40.916Z,10.17
2022-09-23T18:41:08.772Z,10.12
2022-09-23T18:43:41.374Z,10.09
2022-09-23T18:46:14.265Z,10.07
2022-09-23T18:49:00.442Z,10.03
2022-09-23T18:51:28.826Z,9.99
2022-09-23T18:53:57.949Z,9.94
2022-09-23T18:56:32.405Z,9.92
2022-09-23T18:59:06.914Z,9.90
2022-09-23T19:01:35.112Z,9.86
2022-09-23T19:04:03.161Z,9.83
2022-09-23T19:06:34.635Z,9.80
2022-09-23T19:09:02.666Z,9.75
2022-09-23T19:11:30.538Z,9.71
2022-09-23T19:14:01.394Z,9.66
2022-09-23T19:16:30.972Z,9.61
2022-09-23T19:18:59.268Z,9.56
2022-09-23T19:21:34.657Z,9.53
2022-09-23T19:24:04.889Z,9.50
2022-09-23T19:26:36.083Z,9.46
2022-09-23T19:29:05.384Z,9.44
2022-09-23T19:31:39.929Z,9.41
2022-09-23T19:34:12.855Z,9.37
2022-09-23T19:36:42.976Z,9.31
2022-09-23T19:39:22.004Z,9.24
2022-09-23T19:41:50.724Z,9.18
2022-09-23T19:44:19.507Z,9.13
2022-09-23T19:46:53.476Z,9.08
2022-09-23T19:49:18.534Z,9.03
2022-09-23T19:51:48.916Z,8.99
2022-09-23T19:54:20.011Z,8.98
2022-09-23T19:56:49.487Z,8.95
2022-09-23T19:59:19.181Z,8.91
2022-09-23T20:01:47.999Z,8.88
2022-09-23T20:04:16.548Z,8.84
2022-09-23T20:06:45.475Z,8.82
2022-09-23T20:09:12.932Z,8.81
2022-09-23T20:11:42.212Z,8.79
2022-09-23T20:14:10.433Z,8.74
2022-09-23T20:16:38.399Z,8.72
2022-09-23T20:19:07.057Z,8.69
2022-09-23T20:21:34.931Z,8.69
2022-09-23T20:24:07.113Z,8.68
2022-09-23T20:26:53.096Z,8.67
2022-09-23T20:29:20.719Z,8.67
2022-09-23T20:31:47.962Z,8.67
2022-09-23T20:34:15.348Z,8.68
2022-09-23T20:36:43.652Z,8.68
2022-09-23T20:39:10.900Z,8.68
2022-09-23T20:41:38.570Z,8.68
2022-09-23T20:44:09.687Z,8.68
2022-09-23T20:46:38.228Z,8.68
2022-09-23T20:49:07.361Z,8.69
2022-09-23T20:51:35.607Z,8.68
2022-09-23T20:54:03.012Z,8.69
2022-09-23T20:56:30.772Z,8.70
2022-09-23T20:59:02.745Z,8.69
2022-09-23T21:01:32.336Z,8.68
2022-09-23T21:04:00.161Z,8.68
2022-09-23T21:06:27.243Z,8.68
2022-09-23T21:08:54.695Z,8.67
2022-09-23T21:11:22.115Z,8.65
2022-09-23T21:13:50.829Z,8.62
2022-09-23T21:16:21.574Z,8.62
2022-09-23T21:18:49.852Z,8.61
2022-09-23T21:21:19.120Z,8.60
2022-09-23T21:23:47.307Z,8.62
2022-09-23T21:26:20.096Z,8.62
2022-09-23T21:28:49.180Z,8.62
2022-09-23T21:31:27.754Z,8.62
2022-09-23T21:33:55.756Z,8.55
2022-09-23T21:36:24.025Z,8.45
2022-09-23T21:38:52.024Z,8.36
2022-09-23T21:41:19.560Z,8.28
2022-09-23T21:43:48.739Z,8.24
2022-09-23T21:46:21.377Z,8.23
2022-09-23T21:48:54.507Z,8.24
2022-09-23T21:51:24.809Z,8.25
2022-09-23T21:53:53.974Z,8.29
2022-09-23T21:56:24.947Z,8.32
2022-09-23T21:58:53.844Z,8.34
2022-09-23T22:01:26.418Z,8.37
2022-09-23T22:03:56.219Z,8.39
2022-09-23T22:06:26.558Z,8.40
2022-09-23T22:09:00.382Z,8.40
2022-09-23T22:11:48.228Z,8.39
2022-09-23T22:14:17.668Z,8.36
2022-09-23T22:16:45.570Z,8.32
2022-09-23T22:19:14.547Z,8.27
2022-09-23T22:21:44.252Z,8.24
2022-09-23T22:24:12.590Z,8.19
2022-09-23T22:26:41.865Z,8.15
2022-09-23T22:29:29.893Z,8.11
2022-09-23T22:32:16.256Z,8.10
2022-09-23T22:34:50.567Z,8.11
2022-09-23T22:37:20.431Z,8.13
2022-09-23T22:39:47.647Z,8.16
2022-09-23T22:42:15.556Z,8.17
2022-09-23T22:44:43.259Z,8.18
2022-09-23T22:47:10.660Z,8.17
2022-09-23T22:49:37.879Z,8.17
2022-09-23T22:52:08.743Z,8.12
2022-09-23T22:54:36.014Z,8.07
2022-09-23T22:57:04.773Z,7.96
2022-09-23T22:59:32.062Z,7.86
2022-09-23T23:02:01.771Z,7.76
2022-09-23T23:04:30.445Z,7.69
2022-09-23T23:06:59.751Z,7.59
2022-09-23T23:09:26.901Z,7.54
2022-09-23T23:11:54.132Z,7.52
2022-09-23T23:14:21.766Z,7.53
2022-09-23T23:16:49.047Z,7.53
2022-09-23T23:19:17.716Z,7.52
2022-09-23T23:21:45.732Z,7.51
2022-09-23T23:24:22.015Z,7.49
2022-09-23T23:26:50.675Z,7.49
2022-09-23T23:29:19.570Z,7.48
2022-09-23T23:31:47.606Z,7.43
2022-09-23T23:34:17.745Z,7.39
2022-09-23T23:36:46.087Z,7.38
2022-09-23T23:39:13.826Z,7.35
2022-09-23T23:41:41.913Z,7.33
2022-09-23T23:44:11.302Z,7.30
2022-09-23T23:46:39.262Z,7.29
2022-09-23T23:49:06.675Z,7.28
2022-09-23T23:51:34.034Z,7.28
2022-09-23T23:54:01.346Z,7.24
2022-09-23T23:56:30.576Z,7.23
2022-09-23T23:59:04.285Z,7.22
